sensor_id;sensor_type;location;lat;lon;timestamp;temperature;humidity
59999;DHT22;45859;51.378;6.736;2023-06-10T00:01:58;21.20;99.90
59999;DHT22;45859;51.378;6.736;2023-06-10T00:04:27;21.10;99.90
59999;DHT22;45859;51.378;6.736;2023-06-10T00:06:52;21.10;99.90
59999;DHT22;45859;51.378;6.736;2023-06-10T00:09:19;21.00;99.90
59999;DHT22;45859;51.378;6.736;2023-06-10T00:11:47;21.00;99.90
59999;DHT22;45859;51.378;6.736;2023-06-10T00:14:13;20.90;99.90
59999;DHT22;45859;51.378;6.736;2023-06-10T00:16:39;20.90;99.90
59999;DHT22;45859;51.378;6.736;2023-06-10T00:19:05;20.80;99.90
59999;DHT22;45859;51.378;6.736;2023-06-10T00:21:31;20.70;99.90
59999;DHT22;45859;51.378;6.736;2023-06-10T00:24:06;20.60;99.90
59999;DHT22;45859;51.378;6.736;2023-06-10T00:26:33;20.50;99.90
59999;DHT22;45859;51.378;6.736;2023-06-10T00:29:02;20.50;99.90
59999;DHT22;45859;51.378;6.736;2023-06-10T00:31:27;20.40;99.90
59999;DHT22;45859;51.378;6.736;2023-06-10T00:33:53;20.40;99.90
59999;DHT22;45859;51.378;6.736;2023-06-10T00:36:19;20.40;99.90
59999;DHT22;45859;51.378;6.736;2023-06-10T00:38:45;20.30;99.90
59999;DHT22;45859;51.378;6.736;2023-06-10T00:41:10;20.30;99.90
59999;DHT22;45859;51.378;6.736;2023-06-10T00:43:36;20.30;99.90
59999;DHT22;45859;51.378;6.736;2023-06-10T00:46:02;20.40;99.90
59999;DHT22;45859;51.378;6.736;2023-06-10T00:48:28;20.30;99.90
59999;DHT22;45859;51.378;6.736;2023-06-10T00:50:54;20.40;99.90
59999;DHT22;45859;51.378;6.736;2023-06-10T00:53:20;20.30;99.90
59999;DHT22;45859;51.378;6.736;2023-06-10T00:55:46;20.30;99.90
59999;DHT22;45859;51.378;6.736;2023-06-10T00:58:13;20.30;99.90
59999;DHT22;45859;51.378;6.736;2023-06-10T01:00:39;20.30;99.90
59999;DHT22;45859;51.378;6.736;2023-06-10T01:03:04;20.20;99.90
59999;DHT22;45859;51.378;6.736;2023-06-10T01:05:38;20.20;99.90
59999;DHT22;45859;51.378;6.736;2023-06-10T01:10:55;20.10;99.90
59999;DHT22;45859;51.378;6.736;2023-06-10T01:13:24;20.10;99.90
59999;DHT22;45859;51.378;6.736;2023-06-10T01:15:54;19.90;99.90
59999;DHT22;45859;51.378;6.736;2023-06-10T01:18:20;19.90;99.90
59999;DHT22;45859;51.378;6.736;2023-06-10T01:20:47;20.00;99.90
59999;DHT22;45859;51.378;6.736;2023-06-10T01:23:14;19.90;99.90
59999;DHT22;45859;51.378;6.736;2023-06-10T01:25:49;19.80;99.90
59999;DHT22;45859;51.378;6.736;2023-06-10T01:34:00;19.80;99.90
59999;DHT22;45859;51.378;6.736;2023-06-10T01:36:27;19.70;99.90
59999;DHT22;45859;51.378;6.736;2023-06-10T01:38:54;19.70;99.90
59999;DHT22;45859;51.378;6.736;2023-06-10T01:41:20;19.70;99.90
59999;DHT22;45859;51.378;6.736;2023-06-10T01:43:47;19.70;99.90
59999;DHT22;45859;51.378;6.736;2023-06-10T01:46:14;19.60;99.90
59999;DHT22;45859;51.378;6.736;2023-06-10T01:48:41;19.60;99.90
59999;DHT22;45859;51.378;6.736;2023-06-10T01:51:07;19.50;99.90
59999;DHT22;45859;51.378;6.736;2023-06-10T01:53:32;19.50;99.90
59999;DHT22;45859;51.378;6.736;2023-06-10T01:55:58;19.50;99.90
59999;DHT22;45859;51.378;6.736;2023-06-10T01:58:23;19.50;99.90
59999;DHT22;45859;51.378;6.736;2023-06-10T02:00:49;19.40;99.90
59999;DHT22;45859;51.378;6.736;2023-06-10T02:03:15;19.40;99.90
59999;DHT22;45859;51.378;6.736;2023-06-10T02:05:40;19.40;99.90
59999;DHT22;45859;51.378;6.736;2023-06-10T02:08:06;19.30;99.90
59999;DHT22;45859;51.378;6.736;2023-06-10T02:10:32;19.30;99.90
59999;DHT22;45859;51.378;6.736;2023-06-10T02:12:57;19.30;99.90
59999;DHT22;45859;51.378;6.736;2023-06-10T02:15:23;19.30;99.90
59999;DHT22;45859;51.378;6.736;2023-06-10T02:17:49;19.30;99.90
59999;DHT22;45859;51.378;6.736;2023-06-10T02:20:14;19.20;99.90
59999;DHT22;45859;51.378;6.736;2023-06-10T02:22:40;19.20;99.90
59999;DHT22;45859;51.378;6.736;2023-06-10T02:25:06;19.20;99.90
59999;DHT22;45859;51.378;6.736;2023-06-10T02:27:32;19.20;99.90
59999;DHT22;45859;51.378;6.736;2023-06-10T02:29:58;19.20;99.90
59999;DHT22;45859;51.378;6.736;2023-06-10T02:32:23;19.20;99.90
59999;DHT22;45859;51.378;6.736;2023-06-10T02:34:49;19.20;99.90
59999;DHT22;45859;51.378;6.736;2023-06-10T02:37:15;19.20;99.90
59999;DHT22;45859;51.378;6.736;2023-06-10T02:39:41;19.10;99.90
59999;DHT22;45859;51.378;6.736;2023-06-10T02:42:07;19.00;99.90
59999;DHT22;45859;51.378;6.736;2023-06-10T02:44:33;19.00;99.90
59999;DHT22;45859;51.378;6.736;2023-06-10T02:46:59;18.90;99.90
59999;DHT22;45859;51.378;6.736;2023-06-10T02:49:25;18.90;99.90
59999;DHT22;45859;51.378;6.736;2023-06-10T02:51:53;18.90;99.90
59999;DHT22;45859;51.378;6.736;2023-06-10T02:54:24;19.00;99.90
59999;DHT22;45859;51.378;6.736;2023-06-10T02:56:51;18.90;99.90
59999;DHT22;45859;51.378;6.736;2023-06-10T02:59:17;18.90;99.90
59999;DHT22;45859;51.378;6.736;2023-06-10T03:01:42;18.80;99.90
59999;DHT22;45859;51.378;6.736;2023-06-10T03:04:08;18.90;99.90
59999;DHT22;45859;51.378;6.736;2023-06-10T03:06:34;18.90;99.90
59999;DHT22;45859;51.378;6.736;2023-06-10T03:09:03;18.80;99.90
59999;DHT22;45859;51.378;6.736;2023-06-10T03:11:32;18.80;99.90
59999;DHT22;45859;51.378;6.736;2023-06-10T03:14:01;18.70;99.90
59999;DHT22;45859;51.378;6.736;2023-06-10T03:16:27;18.70;99.90
59999;DHT22;45859;51.378;6.736;2023-06-10T03:18:53;18.70;99.90
59999;DHT22;45859;51.378;6.736;2023-06-10T03:21:19;18.60;99.90
59999;DHT22;45859;51.378;6.736;2023-06-10T03:23:45;18.50;99.90
59999;DHT22;45859;51.378;6.736;2023-06-10T03:26:11;18.70;99.90
59999;DHT22;45859;51.378;6.736;2023-06-10T03:28:39;18.40;99.90
59999;DHT22;45859;51.378;6.736;2023-06-10T03:31:05;18.40;99.90
59999;DHT22;45859;51.378;6.736;2023-06-10T03:33:31;18.40;99.90
59999;DHT22;45859;51.378;6.736;2023-06-10T03:35:56;18.40;99.90
59999;DHT22;45859;51.378;6.736;2023-06-10T03:38:22;18.40;99.90
59999;DHT22;45859;51.378;6.736;2023-06-10T03:40:47;18.40;99.90
59999;DHT22;45859;51.378;6.736;2023-06-10T03:43:13;18.40;99.90
59999;DHT22;45859;51.378;6.736;2023-06-10T03:45:38;18.30;99.90
59999;DHT22;45859;51.378;6.736;2023-06-10T03:48:05;18.30;99.90
59999;DHT22;45859;51.378;6.736;2023-06-10T03:50:31;18.30;99.90
59999;DHT22;45859;51.378;6.736;2023-06-10T03:52:57;18.20;99.90
59999;DHT22;45859;51.378;6.736;2023-06-10T03:55:23;18.20;99.90
59999;DHT22;45859;51.378;6.736;2023-06-10T03:57:49;18.30;99.90
59999;DHT22;45859;51.378;6.736;2023-06-10T04:00:16;18.10;99.90
59999;DHT22;45859;51.378;6.736;2023-06-10T04:02:43;18.10;99.90
59999;DHT22;45859;51.378;6.736;2023-06-10T04:05:13;18.10;99.90
59999;DHT22;45859;51.378;6.736;2023-06-10T04:07:39;18.00;99.90
59999;DHT22;45859;51.378;6.736;2023-06-10T04:10:07;18.00;99.90
59999;DHT22;45859;51.378;6.736;2023-06-10T04:12:32;18.20;99.90
59999;DHT22;45859;51.378;6.736;2023-06-10T04:14:58;18.40;99.90
59999;DHT22;45859;51.378;6.736;2023-06-10T04:17:25;18.20;99.90
59999;DHT22;45859;51.378;6.736;2023-06-10T04:19:50;18.20;99.90
59999;DHT22;45859;51.378;6.736;2023-06-10T04:22:16;18.30;99.90
59999;DHT22;45859;51.378;6.736;2023-06-10T04:24:43;18.40;99.90
59999;DHT22;45859;51.378;6.736;2023-06-10T04:27:09;18.40;99.90
59999;DHT22;45859;51.378;6.736;2023-06-10T04:29:35;18.60;99.90
59999;DHT22;45859;51.378;6.736;2023-06-10T04:32:01;18.60;99.90
59999;DHT22;45859;51.378;6.736;2023-06-10T04:34:27;18.60;99.90
59999;DHT22;45859;51.378;6.736;2023-06-10T04:36:53;18.70;99.90
59999;DHT22;45859;51.378;6.736;2023-06-10T04:39:19;18.90;99.90
59999;DHT22;45859;51.378;6.736;2023-06-10T04:41:45;18.90;99.90
59999;DHT22;45859;51.378;6.736;2023-06-10T04:44:11;19.10;99.90
59999;DHT22;45859;51.378;6.736;2023-06-10T04:46:37;19.20;99.90
59999;DHT22;45859;51.378;6.736;2023-06-10T04:49:03;19.30;99.90
59999;DHT22;45859;51.378;6.736;2023-06-10T04:51:30;19.40;99.90
59999;DHT22;45859;51.378;6.736;2023-06-10T04:53:57;19.50;99.90
59999;DHT22;45859;51.378;6.736;2023-06-10T04:56:23;19.70;99.90
59999;DHT22;45859;51.378;6.736;2023-06-10T04:58:49;19.80;99.90
59999;DHT22;45859;51.378;6.736;2023-06-10T05:01:15;19.90;99.90
59999;DHT22;45859;51.378;6.736;2023-06-10T05:03:41;20.10;99.90
59999;DHT22;45859;51.378;6.736;2023-06-10T05:06:06;20.20;99.90
59999;DHT22;45859;51.378;6.736;2023-06-10T05:08:32;20.30;99.90
59999;DHT22;45859;51.378;6.736;2023-06-10T05:10:58;20.40;99.90
59999;DHT22;45859;51.378;6.736;2023-06-10T05:13:24;20.50;99.90
59999;DHT22;45859;51.378;6.736;2023-06-10T05:15:49;20.60;99.90
59999;DHT22;45859;51.378;6.736;2023-06-10T05:18:15;20.90;99.90
59999;DHT22;45859;51.378;6.736;2023-06-10T05:20:41;20.90;99.90
59999;DHT22;45859;51.378;6.736;2023-06-10T05:23:06;20.90;99.90
59999;DHT22;45859;51.378;6.736;2023-06-10T05:25:32;21.10;99.90
59999;DHT22;45859;51.378;6.736;2023-06-10T05:27:58;21.10;99.90
59999;DHT22;45859;51.378;6.736;2023-06-10T05:30:24;21.20;99.90
59999;DHT22;45859;51.378;6.736;2023-06-10T05:32:50;21.40;99.90
59999;DHT22;45859;51.378;6.736;2023-06-10T05:35:16;21.60;99.90
59999;DHT22;45859;51.378;6.736;2023-06-10T05:37:42;21.70;99.90
59999;DHT22;45859;51.378;6.736;2023-06-10T05:40:09;21.50;99.90
59999;DHT22;45859;51.378;6.736;2023-06-10T05:42:35;21.40;99.90
59999;DHT22;45859;51.378;6.736;2023-06-10T05:45:01;21.60;99.90
59999;DHT22;45859;51.378;6.736;2023-06-10T05:47:26;21.90;99.90
59999;DHT22;45859;51.378;6.736;2023-06-10T05:49:52;22.20;99.90
59999;DHT22;45859;51.378;6.736;2023-06-10T05:52:18;22.50;99.90
59999;DHT22;45859;51.378;6.736;2023-06-10T05:54:43;22.60;99.90
59999;DHT22;45859;51.378;6.736;2023-06-10T05:57:09;23.00;99.90
59999;DHT22;45859;51.378;6.736;2023-06-10T05:59:35;24.10;99.90
59999;DHT22;45859;51.378;6.736;2023-06-10T06:02:01;25.00;99.90
59999;DHT22;45859;51.378;6.736;2023-06-10T06:04:27;26.10;99.90
59999;DHT22;45859;51.378;6.736;2023-06-10T06:06:52;26.90;99.90
59999;DHT22;45859;51.378;6.736;2023-06-10T06:09:18;27.60;99.90
59999;DHT22;45859;51.378;6.736;2023-06-10T06:11:43;27.20;99.90
59999;DHT22;45859;51.378;6.736;2023-06-10T06:14:09;26.90;99.90
59999;DHT22;45859;51.378;6.736;2023-06-10T06:16:35;26.60;99.90
59999;DHT22;45859;51.378;6.736;2023-06-10T06:19:00;26.70;99.90
59999;DHT22;45859;51.378;6.736;2023-06-10T06:21:26;27.10;99.90
59999;DHT22;45859;51.378;6.736;2023-06-10T06:23:52;27.10;99.90
59999;DHT22;45859;51.378;6.736;2023-06-10T06:26:17;26.90;99.90
59999;DHT22;45859;51.378;6.736;2023-06-10T06:28:43;26.90;99.90
59999;DHT22;45859;51.378;6.736;2023-06-10T06:31:09;27.40;99.90
59999;DHT22;45859;51.378;6.736;2023-06-10T06:33:34;28.10;99.90
59999;DHT22;45859;51.378;6.736;2023-06-10T06:36:00;29.10;99.90
59999;DHT22;45859;51.378;6.736;2023-06-10T06:38:26;29.40;99.90
59999;DHT22;45859;51.378;6.736;2023-06-10T06:40:51;30.20;99.90
59999;DHT22;45859;51.378;6.736;2023-06-10T06:43:17;30.60;99.90
59999;DHT22;45859;51.378;6.736;2023-06-10T06:45:44;30.90;99.90
59999;DHT22;45859;51.378;6.736;2023-06-10T06:48:11;31.20;99.90
59999;DHT22;45859;51.378;6.736;2023-06-10T06:50:36;31.30;99.90
59999;DHT22;45859;51.378;6.736;2023-06-10T06:53:02;31.30;99.90
59999;DHT22;45859;51.378;6.736;2023-06-10T06:55:28;31.00;99.90
59999;DHT22;45859;51.378;6.736;2023-06-10T06:57:54;30.80;99.90
59999;DHT22;45859;51.378;6.736;2023-06-10T07:00:19;31.30;99.90
59999;DHT22;45859;51.378;6.736;2023-06-10T07:02:45;30.90;99.90
59999;DHT22;45859;51.378;6.736;2023-06-10T07:05:11;32.00;99.90
59999;DHT22;45859;51.378;6.736;2023-06-10T07:07:36;32.80;99.90
59999;DHT22;45859;51.378;6.736;2023-06-10T07:10:02;32.40;99.90
59999;DHT22;45859;51.378;6.736;2023-06-10T07:12:27;32.60;99.90
59999;DHT22;45859;51.378;6.736;2023-06-10T07:14:53;32.40;99.90
59999;DHT22;45859;51.378;6.736;2023-06-10T07:17:19;31.80;99.90
59999;DHT22;45859;51.378;6.736;2023-06-10T07:19:45;32.20;99.90
59999;DHT22;45859;51.378;6.736;2023-06-10T07:22:11;31.80;99.90
59999;DHT22;45859;51.378;6.736;2023-06-10T07:24:37;31.50;99.90
59999;DHT22;45859;51.378;6.736;2023-06-10T07:27:03;31.50;99.90
59999;DHT22;45859;51.378;6.736;2023-06-10T07:29:29;32.00;99.90
59999;DHT22;45859;51.378;6.736;2023-06-10T07:31:55;32.60;99.90
59999;DHT22;45859;51.378;6.736;2023-06-10T07:34:20;33.10;99.90
59999;DHT22;45859;51.378;6.736;2023-06-10T07:36:46;32.60;99.90
59999;DHT22;45859;51.378;6.736;2023-06-10T07:39:12;32.90;99.90
59999;DHT22;45859;51.378;6.736;2023-06-10T07:41:38;32.70;99.90
59999;DHT22;45859;51.378;6.736;2023-06-10T07:44:04;32.60;99.90
59999;DHT22;45859;51.378;6.736;2023-06-10T07:46:29;32.80;99.90
59999;DHT22;45859;51.378;6.736;2023-06-10T07:48:55;32.70;99.90
59999;DHT22;45859;51.378;6.736;2023-06-10T07:51:21;32.80;99.90
59999;DHT22;45859;51.378;6.736;2023-06-10T07:53:46;33.60;99.90
59999;DHT22;45859;51.378;6.736;2023-06-10T07:56:12;34.10;99.90
59999;DHT22;45859;51.378;6.736;2023-06-10T07:58:38;35.40;99.90
59999;DHT22;45859;51.378;6.736;2023-06-10T08:01:04;35.40;99.90
59999;DHT22;45859;51.378;6.736;2023-06-10T08:03:30;36.80;99.90
59999;DHT22;45859;51.378;6.736;2023-06-10T08:05:55;34.60;99.90
59999;DHT22;45859;51.378;6.736;2023-06-10T08:08:21;33.90;99.90
59999;DHT22;45859;51.378;6.736;2023-06-10T08:10:46;33.00;99.90
59999;DHT22;45859;51.378;6.736;2023-06-10T08:13:12;33.40;99.90
59999;DHT22;45859;51.378;6.736;2023-06-10T08:15:38;34.70;99.90
59999;DHT22;45859;51.378;6.736;2023-06-10T08:18:03;34.70;99.90
59999;DHT22;45859;51.378;6.736;2023-06-10T08:20:29;35.30;99.90
59999;DHT22;45859;51.378;6.736;2023-06-10T08:22:55;36.10;99.90
59999;DHT22;45859;51.378;6.736;2023-06-10T08:25:20;36.30;99.90
59999;DHT22;45859;51.378;6.736;2023-06-10T08:27:47;36.30;99.90
59999;DHT22;45859;51.378;6.736;2023-06-10T08:30:13;36.20;99.90
59999;DHT22;45859;51.378;6.736;2023-06-10T08:32:39;36.60;99.90
59999;DHT22;45859;51.378;6.736;2023-06-10T08:35:05;36.50;99.90
59999;DHT22;45859;51.378;6.736;2023-06-10T08:37:31;36.00;99.90
59999;DHT22;45859;51.378;6.736;2023-06-10T08:39:56;36.40;99.90
59999;DHT22;45859;51.378;6.736;2023-06-10T08:42:28;37.30;99.90
59999;DHT22;45859;51.378;6.736;2023-06-10T08:45:01;36.90;99.90
59999;DHT22;45859;51.378;6.736;2023-06-10T08:47:29;35.80;99.90
59999;DHT22;45859;51.378;6.736;2023-06-10T08:49:57;35.00;99.90
59999;DHT22;45859;51.378;6.736;2023-06-10T08:52:29;35.20;99.90
59999;DHT22;45859;51.378;6.736;2023-06-10T08:55:03;35.40;99.90
59999;DHT22;45859;51.378;6.736;2023-06-10T08:57:30;36.10;99.90
59999;DHT22;45859;51.378;6.736;2023-06-10T08:59:57;36.50;99.90
59999;DHT22;45859;51.378;6.736;2023-06-10T09:02:24;36.30;99.90
59999;DHT22;45859;51.378;6.736;2023-06-10T09:04:50;34.80;99.90
59999;DHT22;45859;51.378;6.736;2023-06-10T09:07:17;33.10;99.90
59999;DHT22;45859;51.378;6.736;2023-06-10T09:09:43;33.40;99.90
59999;DHT22;45859;51.378;6.736;2023-06-10T09:12:10;33.70;99.90
59999;DHT22;45859;51.378;6.736;2023-06-10T09:14:36;34.30;99.90
59999;DHT22;45859;51.378;6.736;2023-06-10T09:17:03;34.30;99.90
59999;DHT22;45859;51.378;6.736;2023-06-10T09:19:29;34.70;99.90
59999;DHT22;45859;51.378;6.736;2023-06-10T09:21:55;34.00;99.90
59999;DHT22;45859;51.378;6.736;2023-06-10T09:24:24;34.70;99.90
59999;DHT22;45859;51.378;6.736;2023-06-10T09:26:50;35.10;99.90
59999;DHT22;45859;51.378;6.736;2023-06-10T09:29:26;36.30;99.90
59999;DHT22;45859;51.378;6.736;2023-06-10T09:31:52;36.10;99.90
59999;DHT22;45859;51.378;6.736;2023-06-10T09:34:18;36.90;99.90
59999;DHT22;45859;51.378;6.736;2023-06-10T09:36:44;36.20;99.90
59999;DHT22;45859;51.378;6.736;2023-06-10T09:39:15;34.90;99.90
59999;DHT22;45859;51.378;6.736;2023-06-10T09:41:42;34.80;99.90
59999;DHT22;45859;51.378;6.736;2023-06-10T09:44:21;34.80;99.90
59999;DHT22;45859;51.378;6.736;2023-06-10T09:46:48;34.70;99.90
59999;DHT22;45859;51.378;6.736;2023-06-10T09:49:16;34.70;99.90
59999;DHT22;45859;51.378;6.736;2023-06-10T09:51:52;34.90;99.90
59999;DHT22;45859;51.378;6.736;2023-06-10T09:54:18;35.20;99.90
59999;DHT22;45859;51.378;6.736;2023-06-10T09:56:50;35.30;99.90
59999;DHT22;45859;51.378;6.736;2023-06-10T09:59:28;34.30;99.90
59999;DHT22;45859;51.378;6.736;2023-06-10T10:01:57;34.30;99.90
59999;DHT22;45859;51.378;6.736;2023-06-10T10:04:26;34.80;99.90
59999;DHT22;45859;51.378;6.736;2023-06-10T10:06:52;35.50;99.90
59999;DHT22;45859;51.378;6.736;2023-06-10T10:09:18;34.50;99.90
59999;DHT22;45859;51.378;6.736;2023-06-10T10:11:44;33.20;99.90
59999;DHT22;45859;51.378;6.736;2023-06-10T10:14:10;32.00;99.90
59999;DHT22;45859;51.378;6.736;2023-06-10T10:16:37;31.10;99.90
59999;DHT22;45859;51.378;6.736;2023-06-10T10:19:20;30.60;99.90
59999;DHT22;45859;51.378;6.736;2023-06-10T10:21:54;30.90;99.90
59999;DHT22;45859;51.378;6.736;2023-06-10T10:24:25;31.10;99.90
59999;DHT22;45859;51.378;6.736;2023-06-10T10:26:55;31.30;99.90
59999;DHT22;45859;51.378;6.736;2023-06-10T10:29:31;31.10;99.90
59999;DHT22;45859;51.378;6.736;2023-06-10T10:31:59;31.00;99.90
59999;DHT22;45859;51.378;6.736;2023-06-10T10:34:50;31.10;99.90
59999;DHT22;45859;51.378;6.736;2023-06-10T10:37:20;30.70;99.90
59999;DHT22;45859;51.378;6.736;2023-06-10T10:39:45;30.50;99.90
59999;DHT22;45859;51.378;6.736;2023-06-10T10:42:12;30.90;99.90
59999;DHT22;45859;51.378;6.736;2023-06-10T10:44:38;30.70;99.90
59999;DHT22;45859;51.378;6.736;2023-06-10T10:47:08;30.40;99.90
59999;DHT22;45859;51.378;6.736;2023-06-10T10:49:35;30.50;99.90
59999;DHT22;45859;51.378;6.736;2023-06-10T10:52:02;30.10;99.90
59999;DHT22;45859;51.378;6.736;2023-06-10T10:54:36;30.20;99.90
59999;DHT22;45859;51.378;6.736;2023-06-10T11:00:06;29.60;99.90
59999;DHT22;45859;51.378;6.736;2023-06-10T11:04:58;29.70;99.90
59999;DHT22;45859;51.378;6.736;2023-06-10T11:07:26;29.50;99.90
59999;DHT22;45859;51.378;6.736;2023-06-10T11:12:25;29.50;99.90
59999;DHT22;45859;51.378;6.736;2023-06-10T11:14:55;29.60;99.90
59999;DHT22;45859;51.378;6.736;2023-06-10T11:17:24;29.60;99.90
59999;DHT22;45859;51.378;6.736;2023-06-10T11:19:49;29.80;99.90
59999;DHT22;45859;51.378;6.736;2023-06-10T11:22:18;29.60;99.90
59999;DHT22;45859;51.378;6.736;2023-06-10T11:24:50;29.50;99.90
59999;DHT22;45859;51.378;6.736;2023-06-10T11:27:23;29.50;99.90
59999;DHT22;45859;51.378;6.736;2023-06-10T11:29:57;29.60;99.90
59999;DHT22;45859;51.378;6.736;2023-06-10T11:32:25;29.60;99.90
59999;DHT22;45859;51.378;6.736;2023-06-10T11:34:54;29.60;99.90
59999;DHT22;45859;51.378;6.736;2023-06-10T11:37:21;29.50;99.90
59999;DHT22;45859;51.378;6.736;2023-06-10T11:39:47;29.80;99.90
59999;DHT22;45859;51.378;6.736;2023-06-10T11:42:17;29.70;99.90
59999;DHT22;45859;51.378;6.736;2023-06-10T11:44:52;29.80;99.90
59999;DHT22;45859;51.378;6.736;2023-06-10T11:47:18;30.00;99.90
59999;DHT22;45859;51.378;6.736;2023-06-10T11:49:44;29.90;99.90
59999;DHT22;45859;51.378;6.736;2023-06-10T11:52:10;29.60;99.90
59999;DHT22;45859;51.378;6.736;2023-06-10T11:54:38;29.30;99.90
59999;DHT22;45859;51.378;6.736;2023-06-10T11:57:04;29.30;99.90
59999;DHT22;45859;51.378;6.736;2023-06-10T11:59:30;29.20;99.90
59999;DHT22;45859;51.378;6.736;2023-06-10T12:01:56;29.20;99.90
59999;DHT22;45859;51.378;6.736;2023-06-10T12:04:22;29.30;99.90
59999;DHT22;45859;51.378;6.736;2023-06-10T12:06:52;29.40;99.90
59999;DHT22;45859;51.378;6.736;2023-06-10T12:09:21;29.40;99.90
59999;DHT22;45859;51.378;6.736;2023-06-10T12:12:04;29.80;99.90
59999;DHT22;45859;51.378;6.736;2023-06-10T12:17:16;29.60;99.90
59999;DHT22;45859;51.378;6.736;2023-06-10T12:19:42;29.40;99.90
59999;DHT22;45859;51.378;6.736;2023-06-10T12:22:08;29.50;99.90
59999;DHT22;45859;51.378;6.736;2023-06-10T12:24:56;29.40;99.90
59999;DHT22;45859;51.378;6.736;2023-06-10T12:27:22;29.40;99.90
59999;DHT22;45859;51.378;6.736;2023-06-10T12:29:52;29.40;99.90
59999;DHT22;45859;51.378;6.736;2023-06-10T12:32:20;29.50;99.90
59999;DHT22;45859;51.378;6.736;2023-06-10T12:35:02;29.70;99.90
59999;DHT22;45859;51.378;6.736;2023-06-10T12:37:29;29.40;99.90
59999;DHT22;45859;51.378;6.736;2023-06-10T12:39:54;29.40;99.90
59999;DHT22;45859;51.378;6.736;2023-06-10T12:42:22;29.40;99.90
59999;DHT22;45859;51.378;6.736;2023-06-10T12:44:53;29.50;99.90
59999;DHT22;45859;51.378;6.736;2023-06-10T12:47:19;29.40;99.90
59999;DHT22;45859;51.378;6.736;2023-06-10T12:49:44;29.30;99.90
59999;DHT22;45859;51.378;6.736;2023-06-10T12:52:10;29.50;99.90
59999;DHT22;45859;51.378;6.736;2023-06-10T12:54:36;29.60;99.90
59999;DHT22;45859;51.378;6.736;2023-06-10T12:57:02;29.50;99.90
59999;DHT22;45859;51.378;6.736;2023-06-10T12:59:28;29.40;99.90
59999;DHT22;45859;51.378;6.736;2023-06-10T13:01:54;29.40;99.90
59999;DHT22;45859;51.378;6.736;2023-06-10T13:04:21;29.40;99.90
59999;DHT22;45859;51.378;6.736;2023-06-10T13:06:47;29.40;99.90
59999;DHT22;45859;51.378;6.736;2023-06-10T13:09:14;29.20;99.90
59999;DHT22;45859;51.378;6.736;2023-06-10T13:11:41;29.30;99.90
59999;DHT22;45859;51.378;6.736;2023-06-10T13:14:07;29.50;99.90
59999;DHT22;45859;51.378;6.736;2023-06-10T13:16:32;29.40;99.90
59999;DHT22;45859;51.378;6.736;2023-06-10T13:18:58;29.50;99.90
59999;DHT22;45859;51.378;6.736;2023-06-10T13:21:24;29.30;99.90
59999;DHT22;45859;51.378;6.736;2023-06-10T13:23:51;29.40;99.90
59999;DHT22;45859;51.378;6.736;2023-06-10T13:26:17;29.30;99.90
59999;DHT22;45859;51.378;6.736;2023-06-10T13:28:45;29.30;99.90
59999;DHT22;45859;51.378;6.736;2023-06-10T13:31:11;29.30;99.90
59999;DHT22;45859;51.378;6.736;2023-06-10T13:33:37;29.30;99.90
59999;DHT22;45859;51.378;6.736;2023-06-10T13:36:03;29.30;99.90
59999;DHT22;45859;51.378;6.736;2023-06-10T13:38:29;29.50;99.90
59999;DHT22;45859;51.378;6.736;2023-06-10T13:40:55;29.50;99.90
59999;DHT22;45859;51.378;6.736;2023-06-10T13:43:20;29.40;99.90
59999;DHT22;45859;51.378;6.736;2023-06-10T13:45:46;29.40;99.90
59999;DHT22;45859;51.378;6.736;2023-06-10T13:48:12;29.30;99.90
59999;DHT22;45859;51.378;6.736;2023-06-10T13:50:38;29.40;99.90
59999;DHT22;45859;51.378;6.736;2023-06-10T13:53:03;29.60;99.90
59999;DHT22;45859;51.378;6.736;2023-06-10T13:55:29;29.70;99.90
59999;DHT22;45859;51.378;6.736;2023-06-10T13:57:54;29.50;99.90
59999;DHT22;45859;51.378;6.736;2023-06-10T14:00:20;29.50;99.90
59999;DHT22;45859;51.378;6.736;2023-06-10T14:02:46;29.50;99.90
59999;DHT22;45859;51.378;6.736;2023-06-10T14:05:12;29.60;99.90
59999;DHT22;45859;51.378;6.736;2023-06-10T14:07:37;29.60;99.90
59999;DHT22;45859;51.378;6.736;2023-06-10T14:10:03;29.70;99.90
59999;DHT22;45859;51.378;6.736;2023-06-10T14:12:29;29.50;99.90
59999;DHT22;45859;51.378;6.736;2023-06-10T14:14:55;29.50;99.90
59999;DHT22;45859;51.378;6.736;2023-06-10T14:17:20;29.40;99.90
59999;DHT22;45859;51.378;6.736;2023-06-10T14:19:46;29.50;99.90
59999;DHT22;45859;51.378;6.736;2023-06-10T14:22:11;29.50;99.90
59999;DHT22;45859;51.378;6.736;2023-06-10T14:24:37;29.40;99.90
59999;DHT22;45859;51.378;6.736;2023-06-10T14:27:03;29.30;99.90
59999;DHT22;45859;51.378;6.736;2023-06-10T14:29:29;29.40;99.90
59999;DHT22;45859;51.378;6.736;2023-06-10T14:31:56;29.30;99.90
59999;DHT22;45859;51.378;6.736;2023-06-10T14:34:22;29.20;99.90
59999;DHT22;45859;51.378;6.736;2023-06-10T14:36:54;29.30;99.90
59999;DHT22;45859;51.378;6.736;2023-06-10T14:39:19;29.40;99.90
59999;DHT22;45859;51.378;6.736;2023-06-10T14:41:45;29.40;99.90
59999;DHT22;45859;51.378;6.736;2023-06-10T14:44:11;29.50;99.90
59999;DHT22;45859;51.378;6.736;2023-06-10T14:46:36;29.50;99.90
59999;DHT22;45859;51.378;6.736;2023-06-10T14:49:02;29.60;99.90
59999;DHT22;45859;51.378;6.736;2023-06-10T14:51:28;29.50;99.90
59999;DHT22;45859;51.378;6.736;2023-06-10T14:53:53;29.40;99.90
59999;DHT22;45859;51.378;6.736;2023-06-10T14:56:19;29.30;99.90
59999;DHT22;45859;51.378;6.736;2023-06-10T14:58:44;29.20;99.90
59999;DHT22;45859;51.378;6.736;2023-06-10T15:01:10;29.20;99.90
59999;DHT22;45859;51.378;6.736;2023-06-10T15:03:36;29.20;99.90
59999;DHT22;45859;51.378;6.736;2023-06-10T15:06:01;29.20;99.90
59999;DHT22;45859;51.378;6.736;2023-06-10T15:08:27;29.20;99.90
59999;DHT22;45859;51.378;6.736;2023-06-10T15:10:55;29.20;99.90
59999;DHT22;45859;51.378;6.736;2023-06-10T15:13:22;29.10;99.90
59999;DHT22;45859;51.378;6.736;2023-06-10T15:15:48;29.10;99.90
59999;DHT22;45859;51.378;6.736;2023-06-10T15:18:13;29.00;99.90
59999;DHT22;45859;51.378;6.736;2023-06-10T15:20:39;29.00;99.90
59999;DHT22;45859;51.378;6.736;2023-06-10T15:23:05;29.00;99.90
59999;DHT22;45859;51.378;6.736;2023-06-10T15:25:30;28.90;99.90
59999;DHT22;45859;51.378;6.736;2023-06-10T15:27:56;28.90;99.90
59999;DHT22;45859;51.378;6.736;2023-06-10T15:30:21;29.00;99.90
59999;DHT22;45859;51.378;6.736;2023-06-10T15:32:47;29.10;99.90
59999;DHT22;45859;51.378;6.736;2023-06-10T15:35:12;29.10;99.90
59999;DHT22;45859;51.378;6.736;2023-06-10T15:37:38;29.10;99.90
59999;DHT22;45859;51.378;6.736;2023-06-10T15:40:04;29.20;99.90
59999;DHT22;45859;51.378;6.736;2023-06-10T15:42:30;29.30;99.90
59999;DHT22;45859;51.378;6.736;2023-06-10T15:44:55;29.30;99.90
59999;DHT22;45859;51.378;6.736;2023-06-10T15:47:21;29.30;99.90